San Clemente, California
Current Conditions -  °F | °C
As of 6:54 PM on Tuesday 25 Nov 2014 (Local Time) from KNFG Reporting Station
Clear Clear  
Wind Chill: 62°   Ceiling: Unl
Heat Index: 62°   Visibility: 10mi
Dew Point: 14°   Wind: 5mph
Humidity: 15%   Direction: 50°NE
Pressure: 30.27"   Gusts: NA
Location:  33.43°N, 117.6°W
Report Text: KNFG 260254Z 05004KT 10SM CLR 17/M10 A3027 RMK AO2 SLP249 T01671100 53010
Loading
Personal Weather Stations






























Interactive Weather Map New forecast layout! Learn more

10-Day Weather Forecast

Advertisements
Track Severe Weather on mobile